Time;durP1;ratioP1;P1;durP2;ratioP2;P2;SDS_P1;SDS_P2;PMS_P1;PMS_P2;Temp;Humidity;BMP_temperature;BMP_pressure;BME280_temperature;BME280_humidity;BME280_pressure;Samples;Min_cycle;Max_cycle;Signal;HPM_P1;HPM_P2
2023/01/27 00:00:39;;;;;;;10.57;3.47;;;-1.10;99.90;;;;;;4843521;29;20036;-87
2023/01/27 00:03:12;;;;;;;11.13;4.23;;;-1.10;99.90;;;;;;4840488;29;20030;-88
2023/01/27 00:05:47;;;;;;;10.27;2.90;;;-1.10;99.90;;;;;;4841803;29;20968;-88
2023/01/27 00:08:16;;;;;;;10.37;3.50;;;-1.20;99.90;;;;;;4843571;29;20026;-87
2023/01/27 00:10:45;;;;;;;11.10;3.07;;;-1.20;99.90;;;;;;4849052;29;20108;-88
2023/01/27 00:13:32;;;;;;;14.90;5.43;;;-1.00;99.90;;;;;;4845725;29;20030;-87
2023/01/27 00:15:58;;;;;;;8.70;3.50;;;-1.00;99.90;;;;;;4845666;29;20125;-87
2023/01/27 00:18:24;;;;;;;13.80;4.30;;;-0.30;99.90;;;;;;4843964;29;20530;-87
2023/01/27 00:26:27;;;;;;;11.57;3.73;;;-1.10;99.90;;;;;;4841665;29;20074;-87
2023/01/27 00:28:53;;;;;;;8.27;3.55;;;-1.30;99.90;;;;;;4856430;29;20030;-88
2023/01/27 00:34:10;;;;;;;9.60;4.00;;;-0.40;99.90;;;;;;4850815;29;20139;-87
2023/01/27 00:36:40;;;;;;;7.80;3.03;;;-0.90;99.90;;;;;;4845806;29;20029;-87
2023/01/27 00:39:08;;;;;;;13.07;3.70;;;-1.10;99.90;;;;;;4846539;29;20487;-86
2023/01/27 00:41:34;;;;;;;11.57;3.90;;;-1.30;99.90;;;;;;4845479;29;20033;-87
2023/01/27 00:44:03;;;;;;;12.30;3.10;;;-0.30;99.90;;;;;;4844364;29;20109;-87
2023/01/27 00:46:31;;;;;;;11.23;3.70;;;-1.20;99.90;;;;;;4845023;29;20033;-87
2023/01/27 00:48:57;;;;;;;11.67;3.33;;;-1.10;99.90;;;;;;4843895;29;20037;-87
2023/01/27 00:51:23;;;;;;;10.23;3.03;;;-1.10;99.90;;;;;;4840907;29;20057;-87
2023/01/27 00:53:49;;;;;;;11.90;3.40;;;-1.10;99.90;;;;;;4844007;29;20022;-87
2023/01/27 00:56:15;;;;;;;11.77;3.27;;;-1.10;99.90;;;;;;4843009;29;20074;-86
2023/01/27 00:58:41;;;;;;;12.07;3.97;;;-0.50;99.90;;;;;;4839594;29;20082;-85
2023/01/27 01:01:09;;;;;;;11.73;4.07;;;-0.70;99.90;;;;;;4838794;29;20507;-86
2023/01/27 01:03:35;;;;;;;12.93;3.67;;;-1.00;99.90;;;;;;4842893;29;20417;-87
2023/01/27 01:06:15;;;;;;;10.37;3.53;;;-0.90;99.90;;;;;;4841618;29;20037;-87
2023/01/27 01:08:47;;;;;;;8.43;2.97;;;-0.40;99.90;;;;;;4842416;29;20042;-87
2023/01/27 01:11:14;;;;;;;7.57;2.85;;;-1.00;99.90;;;;;;4843685;29;20066;-87
2023/01/27 01:13:41;;;;;;;11.17;3.57;;;-1.10;99.90;;;;;;4843646;29;20026;-87
2023/01/27 01:16:21;;;;;;;9.27;3.40;;;-0.90;99.90;;;;;;4841288;29;20038;-86
2023/01/27 01:18:47;;;;;;;10.10;3.33;;;-1.10;99.90;;;;;;4840264;29;20433;-87
2023/01/27 01:21:14;;;;;;;11.07;3.50;;;-0.80;99.90;;;;;;4841708;29;20026;-86
2023/01/27 01:23:41;;;;;;;13.13;4.90;;;-1.20;99.90;;;;;;4841713;29;20108;-86
2023/01/27 01:26:09;;;;;;;13.00;4.03;;;-0.40;99.90;;;;;;4843139;29;20117;-86
2023/01/27 01:28:35;;;;;;;12.43;3.20;;;-1.00;99.90;;;;;;4842640;29;20049;-87
2023/01/27 01:31:21;;;;;;;13.13;3.77;;;-0.90;99.90;;;;;;4841933;29;20057;-87
2023/01/27 01:33:47;;;;;;;8.23;4.07;;;-0.60;99.90;;;;;;4843693;29;20033;-87
2023/01/27 01:36:19;;;;;;;13.03;3.33;;;-1.20;99.90;;;;;;4843530;29;20026;-87
2023/01/27 01:38:45;;;;;;;13.80;3.23;;;-1.10;99.90;;;;;;4839301;29;20037;-87
2023/01/27 01:41:20;;;;;;;10.20;3.50;;;-1.30;99.90;;;;;;4837287;29;20037;-87
2023/01/27 01:43:46;;;;;;;13.53;4.30;;;-0.30;99.90;;;;;;4834194;29;20046;-88
2023/01/27 01:46:15;;;;;;;8.07;3.30;;;-1.00;99.90;;;;;;4836376;29;20488;-87
2023/01/27 01:48:46;;;;;;;12.90;4.10;;;-1.20;99.90;;;;;;4843036;29;20444;-86
2023/01/27 01:51:33;;;;;;;14.83;4.10;;;-1.10;99.90;;;;;;4844585;29;20038;-87
2023/01/27 01:54:05;;;;;;;12.97;3.60;;;-1.10;99.90;;;;;;4840046;29;20029;-88
2023/01/27 01:56:41;;;;;;;12.75;4.03;;;-1.10;99.90;;;;;;4843180;29;20033;-88
2023/01/27 01:59:22;;;;;;;12.13;4.03;;;-1.20;99.90;;;;;;4844229;29;20065;-87
2023/01/27 02:01:49;;;;;;;8.70;3.00;;;-1.10;99.90;;;;;;4843926;29;20045;-87
2023/01/27 02:04:22;;;;;;;17.20;4.17;;;-1.10;99.90;;;;;;4841763;29;20033;-88
2023/01/27 02:07:17;;;;;;;13.00;4.03;;;-1.10;99.90;;;;;;4840792;29;20038;-87
2023/01/27 02:09:42;;;;;;;7.77;3.17;;;-1.10;99.90;;;;;;4836845;29;20030;-88
2023/01/27 02:12:13;;;;;;;12.10;3.33;;;-1.20;99.90;;;;;;4842698;29;20095;-87
2023/01/27 02:14:42;;;;;;;13.93;4.43;;;-1.20;99.90;;;;;;4839579;29;20026;-87
2023/01/27 02:17:15;;;;;;;14.20;3.67;;;-1.20;99.90;;;;;;4837492;29;20030;-88
2023/01/27 02:20:06;;;;;;;16.40;3.63;;;-1.10;99.90;;;;;;4841060;29;20048;-87
2023/01/27 02:23:20;;;;;;;10.60;3.93;;;-1.40;99.90;;;;;;4841564;29;20029;-88
2023/01/27 02:26:07;;;;;;;13.67;3.83;;;-1.10;99.90;;;;;;4832962;29;20034;-89
2023/01/27 02:28:38;;;;;;;11.70;3.63;;;-1.20;99.90;;;;;;4828240;29;20030;-89
2023/01/27 02:31:08;;;;;;;10.90;4.23;;;-1.20;99.90;;;;;;4839627;29;20026;-89
2023/01/27 02:33:39;;;;;;;12.47;3.80;;;-0.70;99.90;;;;;;4847790;29;20041;-89
2023/01/27 02:36:23;;;;;;;19.30;4.43;;;-1.80;99.90;;;;;;4842549;29;20082;-89
2023/01/27 02:39:09;;;;;;;13.37;4.30;;;-1.80;99.90;;;;;;4847814;29;20038;-89
2023/01/27 02:42:00;;;;;;;11.93;3.50;;;-1.20;99.90;;;;;;4834016;29;20066;-89
2023/01/27 02:44:47;;;;;;;8.87;3.57;;;-1.20;99.90;;;;;;4844217;29;20042;-89
2023/01/27 02:57:19;;;;;;;10.50;3.07;;;-1.00;99.90;;;;;;4842919;29;20052;-89
2023/01/27 03:00:04;;;;;;;7.28;2.20;;;-1.20;99.90;;;;;;4828502;29;20031;-90
2023/01/27 03:02:30;;;;;;;10.57;4.10;;;-1.00;99.90;;;;;;4826207;29;20064;-89
2023/01/27 03:04:57;;;;;;;12.30;4.03;;;-1.30;99.90;;;;;;4838163;29;20067;-90
2023/01/27 03:07:23;;;;;;;10.77;3.60;;;-0.40;99.90;;;;;;4826207;29;20034;-89
2023/01/27 03:10:11;;;;;;;12.17;3.60;;;-0.30;99.90;;;;;;4842734;29;20033;-89
2023/01/27 03:12:37;;;;;;;11.43;3.40;;;-1.50;99.90;;;;;;4844240;29;20079;-88
2023/01/27 03:22:00;;;;;;;14.47;3.00;;;-1.10;99.90;;;;;;4834409;29;20478;-89
2023/01/27 03:24:43;;;;;;;11.23;3.53;;;-0.60;99.90;;;;;;4843543;29;20034;-89
2023/01/27 03:27:35;;;;;;;9.33;3.57;;;-1.20;99.90;;;;;;4836787;29;20065;-89
2023/01/27 03:30:18;;;;;;;9.40;2.97;;;-0.30;99.90;;;;;;4846280;29;20053;-89
2023/01/27 03:32:59;;;;;;;9.33;3.47;;;-1.20;99.90;;;;;;4841044;29;20034;-90
2023/01/27 03:35:37;;;;;;;8.70;2.90;;;-1.20;99.90;;;;;;4843834;29;20348;-90
2023/01/27 03:46:54;;;;;;;9.63;3.80;;;-1.20;99.90;;;;;;4838849;29;20118;-90
2023/01/27 03:49:26;;;;;;;13.40;3.28;;;-0.90;99.90;;;;;;4833191;29;20034;-90
2023/01/27 03:54:48;;;;;;;7.27;2.80;;;-1.20;99.90;;;;;;4844984;29;20119;-89
2023/01/27 03:57:17;;;;;;;12.70;3.23;;;-1.00;99.90;;;;;;4834510;29;20117;-88
2023/01/27 03:59:54;;;;;;;10.97;2.93;;;-0.80;99.90;;;;;;4847061;29;20029;-90
2023/01/27 04:08:47;;;;;;;7.97;2.43;;;-1.30;99.90;;;;;;4842952;29;20435;-90
2023/01/27 04:14:24;;;;;;;10.17;3.13;;;-1.10;99.90;;;;;;4831432;29;20037;-89
2023/01/27 04:17:10;;;;;;;9.07;3.15;;;-1.30;99.90;;;;;;4847058;29;20038;-90
2023/01/27 04:19:36;;;;;;;7.60;2.73;;;-1.30;99.90;;;;;;4843345;29;20063;-90
2023/01/27 04:25:24;;;;;;;10.00;3.17;;;-1.30;99.90;;;;;;4846610;29;20109;-90
2023/01/27 04:27:55;;;;;;;8.13;3.20;;;-1.30;99.90;;;;;;4843835;29;20030;-90
2023/01/27 04:30:24;;;;;;;8.00;3.40;;;-1.60;99.90;;;;;;4838459;29;20514;-90
2023/01/27 04:33:03;;;;;;;7.57;2.33;;;-1.20;99.90;;;;;;4833221;29;20114;-90
2023/01/27 04:35:35;;;;;;;7.43;2.40;;;-1.00;99.90;;;;;;4844575;29;20053;-89
2023/01/27 04:38:36;;;;;;;10.47;2.87;;;-0.70;99.90;;;;;;4835588;29;20033;-89
2023/01/27 04:41:11;;;;;;;10.83;3.03;;;-1.10;99.90;;;;;;4830363;29;20368;-89
2023/01/27 04:43:40;;;;;;;10.43;2.43;;;-1.00;99.90;;;;;;4848896;29;20033;-89
2023/01/27 04:46:25;;;;;;;11.47;3.50;;;-1.20;99.90;;;;;;4844718;29;20015;-90
2023/01/27 04:48:54;;;;;;;11.20;2.60;;;-1.20;99.90;;;;;;4843737;29;20033;-90
2023/01/27 04:51:23;;;;;;;10.33;3.33;;;-1.30;99.90;;;;;;4844109;29;20030;-89
2023/01/27 04:53:49;;;;;;;6.90;2.67;;;-1.20;99.90;;;;;;4856084;29;20026;-89
2023/01/27 04:56:48;;;;;;;6.30;2.47;;;-1.20;99.90;;;;;;4858183;29;20037;-89
2023/01/27 04:59:17;;;;;;;10.50;2.47;;;-1.10;99.90;;;;;;4845022;29;20053;-89
2023/01/27 05:01:45;;;;;;;9.67;3.37;;;-1.30;99.90;;;;;;4840818;29;20030;-89
2023/01/27 05:04:17;;;;;;;5.60;1.97;;;-1.30;99.90;;;;;;4837485;29;20034;-88
2023/01/27 05:13:27;;;;;;;8.53;3.03;;;-1.10;99.90;;;;;;4850108;29;20163;-88
2023/01/27 05:16:29;;;;;;;11.67;3.03;;;-1.40;99.90;;;;;;4839574;29;20026;-89
2023/01/27 05:18:58;;;;;;;9.40;2.80;;;-1.40;99.90;;;;;;4839207;29;20034;-89
2023/01/27 05:21:47;;;;;;;6.90;2.73;;;-1.40;99.90;;;;;;4839674;29;20197;-89
2023/01/27 05:24:13;;;;;;;8.23;3.07;;;-1.40;99.90;;;;;;4834085;29;20524;-90
2023/01/27 05:26:52;;;;;;;8.43;3.53;;;-1.40;99.90;;;;;;4830314;29;20487;-90
2023/01/27 05:29:23;;;;;;;6.57;2.93;;;-1.80;99.90;;;;;;4845758;29;20503;-89
2023/01/27 05:34:50;;;;;;;9.47;3.37;;;-1.30;99.90;;;;;;4841953;29;20110;-88
2023/01/27 05:37:52;;;;;;;8.93;3.30;;;-1.20;99.90;;;;;;4841193;29;20037;-89
2023/01/27 05:40:21;;;;;;;13.20;3.73;;;-0.60;99.90;;;;;;4827115;29;20118;-90
2023/01/27 05:45:19;;;;;;;8.73;3.00;;;-1.30;99.90;;;;;;4843424;29;20050;-89
2023/01/27 05:51:05;;;;;;;8.33;3.47;;;-1.30;99.90;;;;;;4847475;29;20069;-89
2023/01/27 05:53:31;;;;;;;10.83;3.53;;;-1.30;99.90;;;;;;4845298;29;20022;-89
2023/01/27 05:56:02;;;;;;;10.83;2.27;;;-1.30;99.90;;;;;;4839947;29;20124;-89
2023/01/27 05:58:31;;;;;;;9.97;3.03;;;-0.90;99.90;;;;;;4826556;29;20038;-89
2023/01/27 06:01:10;;;;;;;8.20;3.63;;;-1.30;99.90;;;;;;4834271;29;20519;-92
2023/01/27 06:03:44;;;;;;;8.53;3.63;;;-1.30;99.90;;;;;;4841763;29;20057;-90
2023/01/27 06:06:16;;;;;;;11.67;4.00;;;-1.30;99.90;;;;;;4842799;29;20033;-89
2023/01/27 06:15:12;;;;;;;20.50;6.13;;;-1.40;99.90;;;;;;4840582;29;20038;-88
2023/01/27 06:17:52;;;;;;;15.70;4.77;;;-1.30;99.90;;;;;;4851331;29;20030;-90
2023/01/27 06:20:26;;;;;;;8.23;2.33;;;-1.10;99.90;;;;;;4842197;29;20038;-88
2023/01/27 06:22:52;;;;;;;12.17;4.07;;;-1.40;99.90;;;;;;4845546;29;20034;-87
2023/01/27 06:25:18;;;;;;;12.27;3.80;;;-1.30;99.90;;;;;;4840759;29;20522;-89
2023/01/27 06:28:04;;;;;;;11.23;3.63;;;-1.20;99.90;;;;;;4851697;29;20030;-89
2023/01/27 06:30:34;;;;;;;9.27;3.83;;;-1.20;99.90;;;;;;4848338;29;20038;-89
2023/01/27 06:33:08;;;;;;;8.67;3.80;;;-1.10;99.90;;;;;;4854053;29;20026;-90
2023/01/27 06:36:15;;;;;;;10.43;4.17;;;-1.20;99.90;;;;;;4855563;29;20033;-89
2023/01/27 06:38:58;;;;;;;13.03;4.30;;;-1.10;99.90;;;;;;4824789;29;20046;-89
2023/01/27 06:41:24;;;;;;;9.30;4.07;;;-1.10;99.90;;;;;;4862701;29;20063;-88
2023/01/27 06:43:50;;;;;;;16.27;5.37;;;-1.20;99.90;;;;;;4856285;29;20045;-89
2023/01/27 06:46:17;;;;;;;9.73;3.80;;;-1.20;99.90;;;;;;4846505;29;20033;-90
2023/01/27 06:48:45;;;;;;;13.17;4.20;;;-1.20;99.90;;;;;;4836055;29;20109;-88
2023/01/27 06:51:11;;;;;;;8.47;3.13;;;-1.20;99.90;;;;;;4835325;29;20033;-89
2023/01/27 06:54:07;;;;;;;11.30;4.13;;;-1.60;99.90;;;;;;4846921;29;20030;-88
2023/01/27 06:56:38;;;;;;;9.23;3.33;;;-1.20;99.90;;;;;;4836457;29;20118;-90
2023/01/27 06:59:26;;;;;;;13.20;3.57;;;-1.50;99.90;;;;;;4844876;29;20053;-90
2023/01/27 07:02:30;;;;;;;8.43;3.07;;;-1.30;99.90;;;;;;4847412;29;20106;-90
2023/01/27 07:05:05;;;;;;;10.27;4.10;;;-1.20;99.90;;;;;;4852146;23;20125;-89
2023/01/27 07:10:55;;;;;;;7.97;3.23;;;-1.10;99.90;;;;;;4845895;29;20065;-89
2023/01/27 07:13:38;;;;;;;13.43;3.47;;;-1.20;99.90;;;;;;4844379;29;20483;-89
2023/01/27 07:16:18;;;;;;;13.43;3.97;;;-1.30;99.90;;;;;;4846939;29;20018;-89
2023/01/27 07:19:02;;;;;;;10.23;4.03;;;-1.30;99.90;;;;;;4850335;29;20026;-90
2023/01/27 07:21:30;;;;;;;7.60;3.03;;;-1.20;99.90;;;;;;4846668;29;20022;-89
2023/01/27 07:23:58;;;;;;;10.40;3.47;;;-1.30;99.90;;;;;;4849783;29;20066;-90
2023/01/27 07:26:43;;;;;;;10.47;3.73;;;-1.20;99.90;;;;;;4848484;29;20025;-90
2023/01/27 07:29:11;;;;;;;10.70;3.93;;;-1.20;99.90;;;;;;4848481;29;20029;-90
2023/01/27 07:31:40;;;;;;;9.77;3.73;;;-1.20;99.90;;;;;;4848133;29;20030;-89
2023/01/27 07:34:09;;;;;;;12.47;4.07;;;-1.40;99.90;;;;;;4844067;29;20142;-89
2023/01/27 07:36:37;;;;;;;20.00;5.60;;;-1.20;99.90;;;;;;4847718;29;20038;-90
2023/01/27 07:39:13;;;;;;;12.07;4.77;;;-1.20;99.90;;;;;;4847582;29;20192;-90
2023/01/27 07:41:42;;;;;;;12.00;4.10;;;-1.20;99.90;;;;;;4843732;29;20505;-90
2023/01/27 07:44:11;;;;;;;;;;;-1.10;99.90;;;;;;4852246;29;20045;-90
2023/01/27 07:46:39;;;;;;;9.63;2.90;;;-1.10;99.90;;;;;;4852576;29;19913;-90
2023/01/27 07:49:11;;;;;;;10.10;3.43;;;-0.90;99.90;;;;;;4840589;29;20086;-91
2023/01/27 07:51:48;;;;;;;11.35;4.07;;;-1.00;99.90;;;;;;4847804;29;20048;-90
2023/01/27 07:54:24;;;;;;;11.77;3.67;;;-1.10;99.90;;;;;;4844205;29;20057;-89
2023/01/27 07:57:05;;;;;;;7.90;3.27;;;-1.60;99.90;;;;;;4851571;29;20018;-90
2023/01/27 07:59:39;;;;;;;10.53;3.60;;;-0.70;99.90;;;;;;4848673;29;20506;-89
2023/01/27 08:02:24;;;;;;;;;;;;;;;;;;;;;
2023/01/27 08:05:42;;;;;;;;;;;;;;;;;;;;;
2023/01/27 09:52:16;;;;;;;6.37;2.70;;;-0.70;99.90;;;;;;4836737;29;20047;-87
2023/01/27 09:55:00;;;;;;;10.70;3.80;;;-0.80;99.90;;;;;;4833716;29;20038;-86
2023/01/27 09:58:04;;;;;;;15.03;3.10;;;-0.70;99.90;;;;;;4829617;29;20046;-87
2023/01/27 10:04:03;;;;;;;11.00;3.00;;;-0.60;99.90;;;;;;4819223;29;20039;-87
2023/01/27 10:13:36;;;;;;;14.30;3.10;;;-0.70;99.90;;;;;;4812293;29;20607;-86
2023/01/27 10:17:17;;;;;;;10.47;3.03;;;-0.50;99.90;;;;;;4817929;29;20039;-85
2023/01/27 10:20:30;;;;;;;8.90;2.97;;;-0.50;99.90;;;;;;4809560;29;20045;-87
2023/01/27 10:23:36;;;;;;;10.97;2.90;;;-0.50;99.90;;;;;;4816362;29;20099;-87
2023/01/27 10:26:44;;;;;;;13.37;4.63;;;-0.50;99.90;;;;;;4815440;29;20043;-86
2023/01/27 10:29:59;;;;;;;14.60;2.67;;;-0.40;99.90;;;;;;4824467;29;20035;-86
2023/01/27 10:32:36;;;;;;;13.73;3.43;;;-0.40;99.90;;;;;;4812005;29;20045;-84
2023/01/27 10:42:15;;;;;;;8.77;2.03;;;-0.70;99.90;;;;;;4826131;29;20077;-84
2023/01/27 10:45:02;;;;;;;14.37;3.10;;;-0.30;99.90;;;;;;4829879;29;20579;-86
2023/01/27 10:48:08;;;;;;;9.63;3.10;;;-0.30;99.90;;;;;;4830255;29;20119;-87
2023/01/27 10:50:55;;;;;;;9.07;2.60;;;-0.30;99.90;;;;;;4823754;29;20045;-86
2023/01/27 10:54:21;;;;;;;9.00;3.17;;;-0.80;99.90;;;;;;4819203;29;20023;-86
2023/01/27 10:57:03;;;;;;;11.97;2.70;;;-0.20;99.90;;;;;;4792317;29;20070;-85
2023/01/27 10:59:54;;;;;;;9.82;3.10;;;0.00;99.90;;;;;;4825812;29;20046;-87
2023/01/27 11:02:38;;;;;;;9.37;3.00;;;-0.20;99.90;;;;;;4815980;29;20443;-88
2023/01/27 11:05:10;;;;;;;8.00;2.23;;;0.60;99.90;;;;;;4820178;29;20121;-87
2023/01/27 11:08:06;;;;;;;10.68;2.83;;;-0.10;99.90;;;;;;4820572;29;20038;-87
2023/01/27 11:13:34;;;;;;;7.85;2.13;;;0.60;99.90;;;;;;4821888;29;20163;-87
2023/01/27 11:16:04;;;;;;;8.53;2.50;;;-0.10;99.90;;;;;;4814845;29;20507;-87
2023/01/27 11:18:38;;;;;;;6.87;1.87;;;0.70;99.90;;;;;;4818105;29;20037;-87
2023/01/27 11:21:17;;;;;;;9.10;2.93;;;0.10;99.90;;;;;;4819567;29;20030;-86
2023/01/27 11:24:22;;;;;;;7.27;2.07;;;-0.10;99.90;;;;;;4823729;29;20042;-87
2023/01/27 11:27:04;;;;;;;11.10;3.00;;;-0.30;99.90;;;;;;4816446;29;20042;-87
2023/01/27 11:30:13;;;;;;;10.50;2.55;;;-0.20;99.90;;;;;;4817356;29;20099;-87
2023/01/27 11:33:09;;;;;;;11.97;3.17;;;-0.20;99.90;;;;;;4827254;29;20740;-87
2023/01/27 11:35:34;;;;;;;5.07;1.83;;;-0.80;99.90;;;;;;4833525;29;20384;-89
2023/01/27 11:38:03;;;;;;;9.13;2.67;;;0.20;99.90;;;;;;4819228;29;20025;-89
2023/01/27 11:40:40;;;;;;;12.90;3.40;;;0.20;99.90;;;;;;4826515;29;20058;-89
2023/01/27 11:43:06;;;;;;;7.93;2.30;;;0.20;99.90;;;;;;4819008;29;20054;-89
2023/01/27 11:45:36;;;;;;;11.00;3.20;;;0.90;99.90;;;;;;4821832;29;20043;-87
2023/01/27 11:48:06;;;;;;;5.17;2.20;;;0.40;99.90;;;;;;4817862;29;20127;-89
2023/01/27 11:50:34;;;;;;;7.67;2.57;;;0.10;99.90;;;;;;4818834;29;20288;-88
2023/01/27 11:53:39;;;;;;;7.57;2.60;;;0.20;99.90;;;;;;4800703;29;20072;-88
2023/01/27 11:56:16;;;;;;;7.60;2.73;;;0.60;99.90;;;;;;4818080;29;20034;-88
2023/01/27 11:58:48;;;;;;;8.53;2.37;;;0.20;99.90;;;;;;4818806;29;20035;-89
2023/01/27 12:01:46;;;;;;;8.70;2.85;;;0.20;99.90;;;;;;4818115;29;20077;-89
2023/01/27 12:04:12;;;;;;;7.97;2.50;;;0.20;99.90;;;;;;4818716;29;20034;-89
2023/01/27 12:07:10;;;;;;;8.13;2.50;;;-0.20;99.90;;;;;;4823168;29;20674;-89
2023/01/27 12:10:32;;;;;;;9.23;2.17;;;0.30;99.90;;;;;;4812195;29;20069;-88
2023/01/27 12:16:47;;;;;;;9.70;2.53;;;0.20;99.90;;;;;;4819211;29;20121;-89
2023/01/27 12:19:34;;;;;;;9.20;2.50;;;0.30;99.90;;;;;;4815071;29;20099;-87
2023/01/27 12:22:13;;;;;;;7.10;1.70;;;0.00;99.90;;;;;;4820013;29;20049;-89
2023/01/27 12:24:45;;;;;;;6.67;1.90;;;0.20;99.90;;;;;;4822132;29;20023;-88
2023/01/27 12:27:30;;;;;;;6.35;2.15;;;0.20;99.90;;;;;;4834977;29;20034;-89
2023/01/27 12:30:08;;;;;;;7.60;2.00;;;0.20;99.90;;;;;;4822228;29;20370;-89
2023/01/27 12:32:41;;;;;;;7.67;2.20;;;0.20;99.90;;;;;;4818349;29;20030;-88
2023/01/27 12:35:52;;;;;;;7.97;2.40;;;0.10;99.90;;;;;;4823459;29;20203;-90
2023/01/27 12:38:52;;;;;;;7.33;2.13;;;0.30;99.90;;;;;;4769567;29;20093;-89
2023/01/27 12:42:02;;;;;;;6.70;2.13;;;0.20;99.90;;;;;;4822884;29;20041;-89
2023/01/27 12:48:02;;;;;;;6.83;2.10;;;0.20;99.90;;;;;;4843061;29;20165;-88
2023/01/27 12:50:42;;;;;;;6.30;2.77;;;0.20;99.90;;;;;;4848412;29;20069;-89
2023/01/27 12:53:27;;;;;;;7.37;1.93;;;0.40;99.90;;;;;;4835112;29;20045;-87
2023/01/27 12:55:53;;;;;;;6.33;2.33;;;0.20;99.90;;;;;;4843296;29;20025;-89
2023/01/27 12:58:42;;;;;;;7.83;3.00;;;0.10;99.90;;;;;;4845716;29;20038;-89
2023/01/27 13:01:32;;;;;;;23.70;5.43;;;0.30;99.90;;;;;;4842546;29;20121;-88
2023/01/27 13:04:02;;;;;;;10.30;3.20;;;0.30;99.90;;;;;;4823441;29;20174;-90
2023/01/27 13:06:40;;;;;;;9.43;2.97;;;0.30;99.90;;;;;;4825616;29;20035;-89
2023/01/27 13:10:22;;;;;;;11.37;2.50;;;0.30;99.90;;;;;;4838924;29;20050;-87
2023/01/27 13:12:57;;;;;;;7.53;3.23;;;0.50;99.90;;;;;;4820395;29;20423;-89
2023/01/27 13:15:30;;;;;;;8.57;2.57;;;0.20;99.90;;;;;;4809754;29;20034;-89
2023/01/27 13:18:26;;;;;;;10.27;2.30;;;1.00;99.90;;;;;;4819567;29;20076;-88
2023/01/27 13:21:32;;;;;;;9.13;3.00;;;0.20;99.90;;;;;;4819458;29;20064;-89
2023/01/27 13:24:20;;;;;;;9.23;2.73;;;0.30;99.90;;;;;;4815582;29;20038;-89
2023/01/27 13:26:51;;;;;;;9.33;3.00;;;0.80;99.90;;;;;;4838882;24;20034;-90
2023/01/27 13:30:15;;;;;;;6.85;1.50;;;0.70;99.90;;;;;;4839634;29;20447;-88
2023/01/27 13:33:05;;;;;;;7.07;2.45;;;0.80;99.90;;;;;;4840059;29;20038;-89
2023/01/27 13:39:03;;;;;;;8.87;1.93;;;1.00;99.90;;;;;;4844044;23;20077;-88
2023/01/27 13:42:13;;;;;;;10.00;2.70;;;0.00;99.90;;;;;;4822257;29;20038;-88
2023/01/27 13:45:07;;;;;;;15.07;3.03;;;0.10;99.90;;;;;;4819830;29;20469;-89
2023/01/27 13:47:50;;;;;;;;;;;0.60;99.90;;;;;;4828623;29;20046;-89
2023/01/27 13:51:19;;;;;;;8.48;2.20;;;0.10;99.90;;;;;;4819598;29;19966;-89
2023/01/27 13:53:38;;;;;;;11.93;3.00;;;-0.60;99.90;;;;;;4808543;29;20038;-89
2023/01/27 13:56:26;;;;;;;12.57;3.37;;;0.20;99.90;;;;;;4804388;29;20034;-88
2023/01/27 13:59:32;;;;;;;11.20;4.10;;;0.00;99.90;;;;;;4818691;29;20498;-89
2023/01/27 14:02:46;;;;;;;9.33;2.97;;;0.00;99.90;;;;;;4816428;29;20086;-88
2023/01/27 14:05:43;;;;;;;11.03;2.73;;;-0.10;99.90;;;;;;4806991;29;20034;-89
2023/01/27 14:08:39;;;;;;;10.53;3.20;;;-0.10;99.90;;;;;;4816572;29;20031;-89
2023/01/27 14:11:26;;;;;;;10.83;3.17;;;-0.10;99.90;;;;;;4801308;29;20043;-88
2023/01/27 14:14:23;;;;;;;9.73;3.23;;;-0.10;99.90;;;;;;4805090;29;20639;-89
2023/01/27 14:17:29;;;;;;;9.57;3.17;;;-0.20;99.90;;;;;;4804713;29;20027;-87
2023/01/27 14:20:19;;;;;;;;;;;;;;;;;;;;;
2023/01/27 14:23:15;;;;;;;12.00;3.17;;;-0.20;99.90;;;;;;4806073;29;20023;-86
2023/01/27 14:25:56;;;;;;;11.20;3.67;;;-0.10;99.90;;;;;;4811424;29;20047;-86
2023/01/27 14:28:43;;;;;;;9.10;3.40;;;-0.20;99.90;;;;;;4803554;29;20030;-86
2023/01/27 14:31:59;;;;;;;;;;;;;;;;;;;;;
2023/01/27 14:34:55;;;;;;;12.80;4.57;;;0.00;99.90;;;;;;4832609;29;20049;-87
2023/01/27 14:41:27;;;;;;;10.53;3.53;;;-0.20;99.90;;;;;;4799874;29;20110;-87
2023/01/27 14:44:36;;;;;;;14.07;4.30;;;-0.20;99.90;;;;;;4819379;29;20030;-85
2023/01/27 14:47:40;;;;;;;11.43;3.67;;;-0.20;99.90;;;;;;4817861;29;20031;-87
2023/01/27 14:51:15;;;;;;;;;;;;;;;;;;;;;
2023/01/27 14:57:38;;;;;;;13.03;3.93;;;-0.30;99.90;;;;;;4816522;24;20046;-87
2023/01/27 15:00:31;;;;;;;11.37;3.90;;;-0.30;99.90;;;;;;4815494;29;20522;-87
2023/01/27 15:03:35;;;;;;;9.93;3.20;;;-0.50;99.90;;;;;;4820198;29;20041;-88
2023/01/27 15:09:52;;;;;;;12.23;2.93;;;-0.30;99.90;;;;;;4781429;29;20134;-88
2023/01/27 15:12:46;;;;;;;10.97;2.97;;;-0.10;99.90;;;;;;4781118;29;20576;-88
2023/01/27 15:15:59;;;;;;;7.53;2.97;;;-0.30;99.90;;;;;;4780895;29;20035;-88
2023/01/27 15:19:10;;;;;;;12.48;3.55;;;-0.30;99.90;;;;;;4785277;29;20050;-88
2023/01/27 15:26:05;;;;;;;8.67;3.37;;;0.20;99.90;;;;;;4786387;29;20100;-88
2023/01/27 15:34:49;;;;;;;15.70;3.30;;;-0.30;99.90;;;;;;4822858;29;20068;-88
2023/01/27 15:37:42;;;;;;;13.57;3.37;;;-0.10;99.90;;;;;;4890210;24;20053;-86
2023/01/27 15:40:27;;;;;;;11.15;3.15;;;0.20;99.90;;;;;;4839375;29;20054;-87
2023/01/27 15:43:24;;;;;;;10.23;2.77;;;-0.30;99.90;;;;;;4838448;29;20076;-86
2023/01/27 15:45:57;;;;;;;13.60;3.87;;;0.00;99.90;;;;;;4831249;29;20121;-87
2023/01/27 15:49:03;;;;;;;8.50;3.50;;;0.40;99.90;;;;;;4834117;29;20121;-87
2023/01/27 15:51:39;;;;;;;11.80;3.87;;;-0.20;99.90;;;;;;4833941;29;20048;-88
2023/01/27 15:54:39;;;;;;;9.17;3.17;;;-0.30;99.90;;;;;;4832090;29;20062;-87
2023/01/27 15:57:39;;;;;;;8.33;3.97;;;-0.40;99.90;;;;;;4819217;29;20084;-87
2023/01/27 16:00:37;;;;;;;8.63;2.93;;;-0.30;99.90;;;;;;4838141;29;20040;-87
2023/01/27 16:03:54;;;;;;;7.77;2.90;;;-0.50;99.90;;;;;;4822571;29;20034;-87
2023/01/27 16:07:16;;;;;;;8.90;2.73;;;-0.30;99.90;;;;;;4839936;29;20079;-87
2023/01/27 16:09:51;;;;;;;7.17;3.33;;;0.10;99.90;;;;;;4840612;29;20038;-88
2023/01/27 16:12:48;;;;;;;9.97;3.07;;;-0.10;99.90;;;;;;4815278;29;20567;-88
2023/01/27 16:16:02;;;;;;;8.73;3.67;;;-0.30;99.90;;;;;;4811294;29;20031;-88
2023/01/27 16:19:08;;;;;;;7.53;3.10;;;-0.90;99.90;;;;;;4825227;29;20049;-88
2023/01/27 16:22:45;;;;;;;7.73;2.83;;;0.40;99.90;;;;;;4825941;29;20031;-88
2023/01/27 16:25:49;;;;;;;7.57;2.63;;;-0.70;99.90;;;;;;4826170;29;20113;-88
2023/01/27 16:29:05;;;;;;;8.30;2.77;;;-0.30;99.90;;;;;;4822171;29;20034;-88
2023/01/27 16:31:53;;;;;;;5.77;2.53;;;-0.30;99.90;;;;;;4824593;29;20041;-87
2023/01/27 16:35:03;;;;;;;10.50;3.10;;;0.30;99.90;;;;;;4833247;29;20065;-87
2023/01/27 16:38:15;;;;;;;7.27;2.40;;;-0.40;99.90;;;;;;4841384;29;20042;-88
2023/01/27 16:41:02;;;;;;;9.07;2.78;;;0.00;99.90;;;;;;4833439;29;20026;-87
2023/01/27 16:43:51;;;;;;;7.47;2.93;;;-0.40;99.90;;;;;;4829823;29;20038;-87
2023/01/27 16:49:04;;;;;;;9.33;3.13;;;-0.30;99.90;;;;;;4856006;23;20515;-87
2023/01/27 16:51:31;;;;;;;7.03;2.27;;;-0.30;99.90;;;;;;4838892;29;20037;-87
2023/01/27 16:54:01;;;;;;;9.60;2.97;;;0.30;99.90;;;;;;4832921;29;20068;-86
2023/01/27 16:56:39;;;;;;;7.30;2.80;;;-0.10;99.90;;;;;;4836774;29;20487;-88
2023/01/27 16:59:20;;;;;;;7.40;2.77;;;-1.00;99.90;;;;;;4822911;29;20039;-87
2023/01/27 17:02:04;;;;;;;8.70;2.40;;;-0.30;99.90;;;;;;4821623;29;20586;-88
2023/01/27 17:04:34;;;;;;;7.17;2.90;;;-0.70;99.90;;;;;;4826739;29;20033;-87
2023/01/27 17:07:15;;;;;;;11.47;2.90;;;-0.50;99.90;;;;;;4824241;29;20108;-88
2023/01/27 17:10:29;;;;;;;;;;;;;;;;;;;;;
2023/01/27 17:12:56;;;;;;;9.63;3.03;;;-0.40;99.90;;;;;;4819447;29;20027;-87
2023/01/27 17:15:45;;;;;;;11.13;3.10;;;-0.10;99.90;;;;;;4821708;29;20060;-88
2023/01/27 17:18:11;;;;;;;6.33;2.33;;;0.00;99.90;;;;;;4821317;29;20509;-87
2023/01/27 17:20:44;;;;;;;7.57;2.13;;;-0.40;99.90;;;;;;4823309;29;20183;-86
2023/01/27 17:23:27;;;;;;;7.17;2.67;;;-0.40;99.90;;;;;;4818864;29;20026;-87
2023/01/27 17:26:01;;;;;;;7.40;2.80;;;0.00;99.90;;;;;;4817349;29;20094;-88
2023/01/27 17:28:33;;;;;;;8.67;3.13;;;-0.40;99.90;;;;;;4823754;29;20079;-87
2023/01/27 17:31:03;;;;;;;8.23;2.73;;;-0.30;99.90;;;;;;4822280;29;20032;-88
2023/01/27 17:33:34;;;;;;;7.33;2.97;;;-0.20;99.90;;;;;;4824705;29;20030;-87
2023/01/27 17:36:08;;;;;;;7.30;2.67;;;-0.40;99.90;;;;;;4822740;29;20102;-87
2023/01/27 17:38:46;;;;;;;7.77;2.43;;;-0.40;99.90;;;;;;4823006;29;20105;-87
2023/01/27 17:41:35;;;;;;;8.27;3.07;;;-0.30;99.90;;;;;;4821880;29;20090;-87
2023/01/27 17:44:07;;;;;;;5.97;2.37;;;-0.30;99.90;;;;;;4820845;29;20091;-87
2023/01/27 17:46:34;;;;;;;8.35;3.60;;;-0.20;99.90;;;;;;4816942;29;20022;-86
2023/01/27 17:49:14;;;;;;;7.90;3.00;;;-0.20;99.90;;;;;;4819342;29;20049;-87
2023/01/27 17:51:44;;;;;;;9.00;3.23;;;-0.10;99.90;;;;;;4822981;29;20400;-87
2023/01/27 17:54:32;;;;;;;5.37;2.30;;;-0.30;99.90;;;;;;4822474;29;20176;-87
2023/01/27 17:57:01;;;;;;;7.53;2.90;;;-0.30;99.90;;;;;;4822476;29;20534;-86
2023/01/27 17:59:28;;;;;;;12.90;2.70;;;-0.30;99.90;;;;;;4822817;29;20488;-87